Time;durP1;ratioP1;P1;durP2;ratioP2;P2;SDS_P1;SDS_P2;PMS_P1;PMS_P2;Temp;Humidity;BMP_temperature;BMP_pressure;BME280_temperature;BME280_humidity;BME280_pressure;Samples;Min_cycle;Max_cycle;Signal;HPM_P1;HPM_P2
2023/06/15 00:00:29;;;;;;;2.40;1.30;;;;;;;15.18;100.00;99778.16;102451;1295;601317;-48
2023/06/15 00:02:56;;;;;;;3.10;2.00;;;;;;;15.16;100.00;99789.16;104653;1267;59279;-47
2023/06/15 00:05:25;;;;;;;3.10;1.50;;;;;;;15.14;100.00;99788.75;104691;1267;60419;-48
2023/06/15 00:07:53;;;;;;;2.20;2.00;;;;;;;15.10;100.00;99791.19;104894;1269;72280;-47
2023/06/15 00:10:20;;;;;;;4.30;1.60;;;;;;;15.06;100.00;99788.19;104586;1267;66437;-47
2023/06/15 00:12:47;;;;;;;5.80;2.20;;;;;;;15.03;100.00;99792.22;104547;1272;72675;-48
2023/06/15 00:15:15;;;;;;;4.90;2.00;;;;;;;15.01;100.00;99793.07;104522;1267;307711;-48
2023/06/15 00:17:44;;;;;;;2.00;1.80;;;;;;;14.99;100.00;99793.52;105265;1263;59196;-49
2023/06/15 00:20:12;;;;;;;2.90;1.70;;;;;;;14.97;100.00;99793.14;104709;1267;72235;-48
2023/06/15 00:22:41;;;;;;;3.20;1.80;;;;;;;14.95;100.00;99794.75;105550;1263;68769;-45
2023/06/15 00:25:08;;;;;;;3.90;2.30;;;;;;;14.90;100.00;99788.52;105590;1266;72476;-48
2023/06/15 00:27:36;;;;;;;5.70;2.30;;;;;;;14.88;100.00;99791.06;104764;1267;60533;-46
2023/06/15 00:30:04;;;;;;;7.70;2.50;;;;;;;14.86;100.00;99796.75;104850;1266;59714;-48
2023/06/15 00:32:32;;;;;;;2.20;1.70;;;;;;;14.82;100.00;99799.19;104989;1266;73876;-48
2023/06/15 00:35:01;;;;;;;5.00;2.50;;;;;;;14.73;100.00;99800.48;105005;1266;67679;-48
2023/06/15 00:37:28;;;;;;;4.40;2.10;;;;;;;14.69;100.00;99797.52;104682;1267;72560;-46
2023/06/15 00:39:56;;;;;;;3.60;1.90;;;;;;;14.66;100.00;99792.61;104768;1267;60386;-48
2023/06/15 00:42:23;;;;;;;6.60;1.30;;;;;;;14.66;100.00;99790.45;105404;1264;59736;-47
2023/06/15 00:44:50;;;;;;;2.00;1.70;;;;;;;14.66;100.00;99796.78;104776;1263;72395;-47
2023/06/15 00:47:19;;;;;;;5.20;2.10;;;;;;;14.65;100.00;99794.32;104665;1263;66749;-46
2023/06/15 00:49:47;;;;;;;3.70;1.60;;;;;;;14.65;100.00;99798.84;104766;1271;72520;-48
2023/06/15 00:52:15;;;;;;;5.80;1.60;;;;;;;14.67;100.00;99800.70;106054;1266;60479;-48
2023/06/15 00:54:43;;;;;;;3.40;2.00;;;;;;;14.70;100.00;99799.98;104573;1270;59467;-48
2023/06/15 00:57:14;;;;;;;2.60;2.30;;;;;;;14.71;100.00;99800.41;105450;1257;75011;-47
2023/06/15 00:59:42;;;;;;;5.20;1.60;;;;;;;14.70;100.00;99797.42;105504;1256;66681;-47
2023/06/15 01:02:12;;;;;;;3.00;1.90;;;;;;;14.68;100.00;99797.39;105460;1257;70775;-48
2023/06/15 01:04:40;;;;;;;3.30;2.20;;;;;;;14.64;100.00;99801.05;105760;1254;62757;-48
2023/06/15 01:07:10;;;;;;;4.10;2.50;;;;;;;14.64;100.00;99796.95;105287;1257;59729;-49
2023/06/15 01:09:40;;;;;;;2.10;2.00;;;;;;;14.63;100.00;99799.50;106399;1254;73080;-48
2023/06/15 01:12:11;;;;;;;2.20;2.00;;;;;;;14.62;100.00;99798.15;105543;1257;68092;-47
2023/06/15 01:14:39;;;;;;;2.80;2.50;;;;;;;14.60;100.00;99794.48;105984;1254;71441;-45
2023/06/15 01:17:13;;;;;;;2.20;2.00;;;;;;;14.62;100.00;99793.65;106107;1259;60414;-46
2023/06/15 01:19:58;;;;;;;2.00;1.80;;;;;;;14.64;100.00;99792.00;106462;1256;59492;-45
2023/06/15 01:22:49;;;;;;;2.90;2.40;;;;;;;14.65;100.00;99797.75;107107;1254;72024;-47
2023/06/15 01:25:26;;;;;;;2.40;2.20;;;;;;;14.61;100.00;99794.36;105418;1259;66304;-46
2023/06/15 01:27:58;;;;;;;4.90;2.30;;;;;;;14.60;100.00;99795.56;108988;1254;72744;-47
2023/06/15 01:30:27;;;;;;;2.60;2.10;;;;;;;14.60;100.00;99793.39;109034;1254;60320;-47
2023/06/15 01:32:54;;;;;;;5.10;1.90;;;;;;;14.59;100.00;99795.60;108994;1253;58784;-47
2023/06/15 01:35:22;;;;;;;3.10;1.50;;;;;;;14.59;100.00;99795.97;108907;1254;73619;-47
2023/06/15 01:37:49;;;;;;;4.80;2.00;;;;;;;14.61;100.00;99794.97;109019;1256;67595;-48
2023/06/15 01:40:17;;;;;;;2.50;1.60;;;;;;;14.60;100.00;99793.73;109128;1254;72657;-46
2023/06/15 01:42:44;;;;;;;2.10;1.70;;;;;;;14.60;100.00;99795.02;109186;1252;62104;-46
2023/06/15 01:45:12;;;;;;;4.80;2.20;;;;;;;14.58;100.00;99798.17;108887;1254;59984;-45
2023/06/15 01:47:39;;;;;;;4.10;1.70;;;;;;;14.57;100.00;99799.86;108997;1254;73103;-46
2023/06/15 01:50:07;;;;;;;3.60;1.70;;;;;;;14.55;100.00;99800.55;108962;1252;66940;-45
2023/06/15 01:52:34;;;;;;;1.80;1.70;;;;;;;14.55;100.00;99807.44;108803;1253;72765;-46
2023/06/15 01:55:02;;;;;;;4.40;1.90;;;;;;;14.49;100.00;99805.63;108999;1259;60382;-46
2023/06/15 01:57:35;;;;;;;3.20;1.20;;;;;;;14.45;100.00;99801.75;109057;1253;59243;-47
2023/06/15 02:00:06;;;;;;;2.80;1.50;;;;;;;14.45;100.00;99801.06;108873;1256;72418;-48
2023/06/15 02:02:40;;;;;;;3.20;1.50;;;;;;;14.47;100.00;99801.99;108994;1255;67582;-44
2023/06/15 02:05:09;;;;;;;2.40;1.60;;;;;;;14.48;100.00;99803.02;108959;1254;72658;-45
2023/06/15 02:07:36;;;;;;;3.00;1.70;;;;;;;14.50;100.00;99799.08;108951;1254;61660;-45
2023/06/15 02:10:05;;;;;;;1.40;1.30;;;;;;;14.52;100.00;99796.83;108868;1254;58806;-45
2023/06/15 02:12:32;;;;;;;3.30;1.70;;;;;;;14.52;100.00;99800.02;108854;1254;73031;-46
2023/06/15 02:15:03;;;;;;;2.80;1.70;;;;;;;14.54;100.00;99803.71;107735;1261;67768;-45
2023/06/15 02:17:39;;;;;;;4.40;1.70;;;;;;;14.58;100.00;99799.14;105436;1257;73119;-48
2023/06/15 02:20:09;;;;;;;2.90;1.50;;;;;;;14.61;100.00;99803.24;105722;1259;61636;-45
2023/06/15 02:22:37;;;;;;;5.10;1.60;;;;;;;14.64;100.00;99805.91;105870;1254;60005;-47
2023/06/15 02:25:04;;;;;;;2.50;1.80;;;;;;;14.67;100.00;99802.52;105372;1255;74660;-44
2023/06/15 02:27:32;;;;;;;1.80;1.70;;;;;;;14.69;100.00;99803.27;105343;1256;66334;-46
2023/06/15 02:30:00;;;;;;;6.00;2.00;;;;;;;14.71;100.00;99804.98;105557;1259;71913;-45
2023/06/15 02:32:36;;;;;;;4.00;1.70;;;;;;;14.71;100.00;99804.63;108735;1254;61479;-45
2023/06/15 02:35:05;;;;;;;2.70;1.30;;;;;;;14.72;100.00;99808.28;105553;1262;60565;-47
2023/06/15 02:37:35;;;;;;;3.90;1.50;;;;;;;14.73;100.00;99805.33;105718;1259;73116;-46
2023/06/15 02:40:06;;;;;;;2.70;1.60;;;;;;;14.74;100.00;99806.38;105419;1260;67704;-47
2023/06/15 02:42:35;;;;;;;3.20;1.60;;;;;;;14.73;100.00;99803.89;105627;1259;72713;-43
2023/06/15 02:45:03;;;;;;;1.80;1.50;;;;;;;14.71;100.00;99804.58;105685;1262;62964;-45
2023/06/15 02:47:30;;;;;;;7.70;2.00;;;;;;;14.70;100.00;99802.83;105904;1254;59794;-45
2023/06/15 02:49:59;;;;;;;3.20;1.60;;;;;;;14.70;100.00;99800.34;105517;1256;73415;-44
2023/06/15 02:52:27;;;;;;;2.70;1.90;;;;;;;14.72;100.00;99808.11;105418;1256;66298;-47
2023/06/15 02:54:54;;;;;;;3.70;2.20;;;;;;;14.74;100.00;99810.67;105402;1259;73101;-46
2023/06/15 02:57:23;;;;;;;2.50;1.60;;;;;;;14.78;100.00;99811.71;105468;1254;61743;-44
2023/06/15 03:00:13;;;;;;;3.50;2.60;;;;;;;14.83;100.00;99811.02;105407;1255;59723;-44
2023/06/15 03:02:46;;;;;;;2.80;2.60;;;;;;;14.88;100.00;99808.58;105407;1254;73005;-45
2023/06/15 03:05:14;;;;;;;8.70;2.60;;;;;;;14.92;100.00;99806.62;105904;1259;67446;-48
2023/06/15 03:07:48;;;;;;;6.30;2.80;;;;;;;14.98;100.00;99805.15;105497;1257;73574;-45
2023/06/15 03:10:25;;;;;;;4.10;3.00;;;;;;;15.04;100.00;99806.76;105361;1256;61400;-46
2023/06/15 03:12:52;;;;;;;4.50;3.20;;;;;;;15.09;100.00;99806.39;105317;1262;59539;-44
2023/06/15 03:15:20;;;;;;;4.90;3.10;;;;;;;15.16;100.00;99809.23;105410;1259;73013;-46
2023/06/15 03:17:48;;;;;;;5.00;2.90;;;;;;;15.22;100.00;99809.56;105332;1253;67689;-48
2023/06/15 03:20:16;;;;;;;3.90;3.60;;;;;;;15.28;100.00;99807.17;105433;1254;71864;-45
2023/06/15 03:22:44;;;;;;;4.10;3.00;;;;;;;15.34;100.00;99808.59;105395;1259;61635;-44
2023/06/15 03:25:11;;;;;;;4.40;3.30;;;;;;;15.40;100.00;99812.87;105820;1259;59652;-46
2023/06/15 03:27:42;;;;;;;4.30;3.20;;;;;;;15.45;100.00;99807.98;105812;1259;73032;-47
2023/06/15 03:30:13;;;;;;;4.50;3.90;;;;;;;15.51;100.00;99811.21;105585;1262;67280;-45
2023/06/15 03:32:41;;;;;;;5.00;4.20;;;;;;;15.57;100.00;99809.23;105574;1259;72676;-46
2023/06/15 03:35:12;;;;;;;3.70;3.40;;;;;;;15.62;100.00;99806.86;105513;1257;60787;-43
2023/06/15 03:37:40;;;;;;;7.20;3.40;;;;;;;15.69;100.00;99802.04;105614;1259;59662;-46
2023/06/15 03:40:08;;;;;;;3.90;3.50;;;;;;;15.75;100.00;99801.29;105194;1257;73024;-46
2023/06/15 03:42:35;;;;;;;3.90;3.60;;;;;;;15.80;100.00;99800.00;105302;1254;67322;-44
2023/06/15 03:45:04;;;;;;;8.50;5.40;;;;;;;15.84;100.00;99799.33;105307;1254;72041;-47
2023/06/15 03:47:32;;;;;;;5.70;5.00;;;;;;;15.91;100.00;99802.73;105367;1256;61117;-45
2023/06/15 03:50:00;;;;;;;5.70;5.10;;;;;;;15.96;100.00;99802.16;105892;1262;59941;-44
2023/06/15 03:52:27;;;;;;;4.20;3.80;;;;;;;16.03;100.00;99810.33;105378;1254;72957;-46
2023/06/15 03:54:54;;;;;;;4.90;3.10;;;;;;;16.10;100.00;99811.66;105146;1254;67482;-46
2023/06/15 03:57:22;;;;;;;7.40;3.90;;;;;;;16.15;100.00;99808.95;104610;1255;73230;-44
2023/06/15 03:59:49;;;;;;;7.30;3.80;;;;;;;16.22;100.00;99804.31;104913;1257;60471;-47
2023/06/15 04:02:16;;;;;;;9.60;4.70;;;;;;;16.30;100.00;99806.27;105230;1259;60692;-45
2023/06/15 04:04:44;;;;;;;8.20;4.50;;;;;;;16.39;100.00;99807.29;105270;1259;74146;-45
2023/06/15 04:07:12;;;;;;;7.10;4.30;;;;;;;16.47;100.00;99807.92;105250;1254;67707;-45
2023/06/15 04:09:39;;;;;;;6.80;5.20;;;;;;;16.56;100.00;99813.09;105247;1257;71796;-44
2023/06/15 04:12:07;;;;;;;7.20;5.70;;;;;;;16.66;100.00;99812.60;105386;1254;60544;-47
2023/06/15 04:14:35;;;;;;;7.20;5.60;;;;;;;16.77;100.00;99814.69;105306;1254;61257;-46
2023/06/15 04:17:03;;;;;;;8.90;5.70;;;;;;;16.86;100.00;99812.39;105295;1254;73927;-48
2023/06/15 04:19:30;;;;;;;11.60;7.00;;;;;;;16.95;100.00;99807.75;107843;1256;67666;-45
2023/06/15 04:21:58;;;;;;;10.80;6.20;;;;;;;17.04;100.00;99806.86;105274;1261;71398;-48
2023/06/15 04:24:25;;;;;;;5.80;5.30;;;;;;;17.13;100.00;99804.77;105153;1254;61668;-45
2023/06/15 04:26:52;;;;;;;7.00;5.20;;;;;;;17.24;100.00;99807.02;105521;1257;60465;-46
2023/06/15 04:29:22;;;;;;;8.70;5.00;;;;;;;17.35;100.00;99803.77;105413;1255;72654;-48
2023/06/15 04:31:55;;;;;;;8.00;5.10;;;;;;;17.47;100.00;99798.35;108933;1254;66737;-49
2023/06/15 04:34:24;;;;;;;5.80;5.20;;;;;;;17.59;100.00;99791.88;106922;1254;72412;-44
2023/06/15 04:36:56;;;;;;;6.10;4.60;;;;;;;17.69;100.00;99792.89;108786;1254;61379;-47
2023/06/15 04:39:25;;;;;;;6.90;4.40;;;;;;;17.81;100.00;99793.63;108788;1254;59997;-45
2023/06/15 04:41:59;;;;;;;9.70;4.90;;;;;;;17.92;100.00;99795.08;108981;1254;72916;-44
2023/06/15 04:44:27;;;;;;;6.60;4.50;;;;;;;18.04;100.00;99791.81;108768;1254;66795;-47
2023/06/15 04:46:55;;;;;;;6.10;3.80;;;;;;;18.15;100.00;99792.36;108847;1254;72701;-46
2023/06/15 04:49:22;;;;;;;6.80;3.80;;;;;;;18.28;100.00;99793.89;108887;1253;60384;-47
2023/06/15 04:51:50;;;;;;;7.70;3.50;;;;;;;18.40;100.00;99789.67;108917;1254;60109;-45
2023/06/15 04:54:17;;;;;;;7.00;4.40;;;;;;;18.51;100.00;99790.00;108867;1254;73925;-47
2023/06/15 04:56:45;;;;;;;18.40;5.70;;;;;;;18.61;100.00;99785.96;108860;1254;67726;-45
2023/06/15 04:59:13;;;;;;;4.60;3.70;;;;;;;18.70;100.00;99792.91;105202;1257;71487;-44
2023/06/15 05:01:40;;;;;;;10.60;3.60;;;;;;;18.77;100.00;99795.23;107027;1254;60708;-49
2023/06/15 05:04:21;;;;;;;9.60;3.90;;;;;;;18.84;100.00;99795.70;105268;1260;60450;-47
2023/06/15 05:06:48;;;;;;;5.50;4.80;;;;;;;18.94;100.00;99794.70;105272;1257;72426;-48
2023/06/15 05:09:16;;;;;;;13.60;4.20;;;;;;;19.02;100.00;99796.80;105951;1254;67853;-47
2023/06/15 05:11:44;;;;;;;12.50;5.60;;;;;;;19.08;100.00;99792.84;105209;1254;71485;-48
2023/06/15 05:14:11;;;;;;;6.30;3.60;;;;;;;19.14;100.00;99792.16;105343;1257;61337;-49
2023/06/15 05:16:39;;;;;;;7.00;3.60;;;;;;;19.20;100.00;99793.42;106411;1254;60514;-48
2023/06/15 05:19:07;;;;;;;5.80;3.80;;;;;;;19.29;100.00;99793.96;105318;1260;73750;-46
2023/06/15 05:21:34;;;;;;;8.20;4.50;;;;;;;19.38;100.00;99795.08;105265;1262;67444;-50
2023/06/15 05:24:02;;;;;;;5.00;4.40;;;;;;;19.45;100.00;99791.36;105267;1257;72750;-45
2023/06/15 05:26:30;;;;;;;8.90;4.10;;;;;;;19.54;100.00;99788.44;105278;1257;60581;-46
2023/06/15 05:29:04;;;;;;;7.20;3.40;;;;;;;19.63;100.00;99790.61;105266;1259;61024;-49
2023/06/15 05:31:31;;;;;;;4.70;2.80;;;;;;;19.70;100.00;99789.10;105160;1259;73857;-47
2023/06/15 05:34:00;;;;;;;3.60;3.20;;;;;;;19.78;100.00;99791.66;106507;1259;67936;-46
2023/06/15 05:36:30;;;;;;;4.80;2.90;;;;;;;19.85;100.00;99792.12;105250;1261;72954;-45
2023/06/15 05:39:20;;;;;;;6.30;3.20;;;;;;;19.93;100.00;99789.45;105356;1259;61680;-45
2023/06/15 05:41:48;;;;;;;6.50;2.60;;;;;;;20.02;100.00;99793.95;105889;1260;60536;-47
2023/06/15 05:44:15;;;;;;;6.00;2.80;;;;;;;20.10;100.00;99791.81;105235;1259;72678;-48
2023/06/15 05:46:44;;;;;;;6.30;3.60;;;;;;;20.17;100.00;99792.30;105554;1259;65837;-47
2023/06/15 05:49:12;;;;;;;4.50;2.40;;;;;;;20.25;100.00;99790.27;105350;1259;72725;-47
2023/06/15 05:51:39;;;;;;;3.70;2.30;;;;;;;20.33;100.00;99791.38;105331;1257;60895;-45
2023/06/15 05:54:07;;;;;;;8.10;1.70;;;;;;;20.41;100.00;99789.31;105339;1260;60425;-46
2023/06/15 05:56:34;;;;;;;5.50;1.90;;;;;;;20.49;100.00;99790.22;105382;1254;75736;-47
2023/06/15 05:59:02;;;;;;;4.40;2.00;;;;;;;20.57;100.00;99784.38;105583;1259;68061;-48
2023/06/15 06:01:30;;;;;;;6.40;1.50;;;;;;;20.64;100.00;99786.44;105464;1257;71427;-47
2023/06/15 06:03:58;;;;;;;6.40;1.60;;;;;;;20.73;100.00;99788.05;105465;1261;60888;-45
2023/06/15 06:06:25;;;;;;;3.40;1.40;;;;;;;20.80;100.00;99789.59;105435;1259;60397;-45
2023/06/15 06:08:53;;;;;;;4.50;1.10;;;;;;;20.86;100.00;99791.60;105894;1260;72671;-44
2023/06/15 06:11:20;;;;;;;6.30;1.20;;;;;;;20.91;100.00;99789.49;105454;1257;67912;-49
2023/06/15 06:13:53;;;;;;;8.60;1.00;;;;;;;20.95;100.00;99793.01;106427;1255;72673;-45
2023/06/15 06:16:21;;;;;;;7.60;1.50;;;;;;;20.97;100.00;99789.65;105573;1257;60997;-45
2023/06/15 06:18:49;;;;;;;4.30;1.50;;;;;;;21.01;100.00;99794.66;105832;1255;60536;-44
2023/06/15 06:21:17;;;;;;;5.70;1.00;;;;;;;21.04;100.00;99794.46;105471;1259;73850;-45
2023/06/15 06:23:44;;;;;;;4.30;1.00;;;;;;;21.08;100.00;99791.93;105355;1259;66452;-49
2023/06/15 06:26:12;;;;;;;2.90;1.10;;;;;;;21.15;100.00;99793.48;108793;1254;71484;-47
2023/06/15 06:28:39;;;;;;;2.50;0.80;;;;;;;21.25;100.00;99789.34;106366;1254;60418;-47
2023/06/15 06:31:07;;;;;;;2.70;0.80;;;;;;;21.35;100.00;99788.08;105362;1256;61197;-48
2023/06/15 06:33:37;;;;;;;1.90;0.70;;;;;;;21.45;100.00;99785.13;105331;1259;73809;-46
2023/06/15 06:36:08;;;;;;;5.20;0.70;;;;;;;21.56;100.00;99783.36;105413;1257;66570;-47
2023/06/15 06:38:36;;;;;;;7.30;0.90;;;;;;;21.65;100.00;99781.37;108820;1257;71062;-48
2023/06/15 06:41:20;;;;;;;5.50;0.60;;;;;;;21.74;100.00;99781.09;107446;1259;60516;-47
2023/06/15 06:43:48;;;;;;;3.10;0.70;;;;;;;21.81;100.00;99782.79;106751;1260;60962;-46
2023/06/15 06:46:15;;;;;;;2.40;0.90;;;;;;;21.88;100.00;99780.48;105370;1259;73270;-46
2023/06/15 06:48:43;;;;;;;5.60;0.70;;;;;;;21.94;100.00;99770.98;105328;1259;67762;-45
2023/06/15 06:51:10;;;;;;;3.90;0.70;;;;;;;22.00;100.00;99773.77;105408;1259;73821;-48
2023/06/15 06:53:37;;;;;;;2.90;1.20;;;;;;;22.05;100.00;99772.15;105320;1258;60447;-49
2023/06/15 06:56:04;;;;;;;2.10;0.70;;;;;;;22.11;100.00;99765.39;105439;1254;60338;-50
2023/06/15 06:58:32;;;;;;;2.20;0.80;;;;;;;22.16;100.00;99757.71;107693;1254;73781;-50
2023/06/15 07:00:59;;;;;;;2.50;0.70;;;;;;;22.25;100.00;99751.94;105277;1260;66280;-46
2023/06/15 07:03:26;;;;;;;9.20;1.30;;;;;;;22.32;100.00;99748.90;105367;1256;73039;-47
2023/06/15 07:05:55;;;;;;;1.60;0.50;;;;;;;22.38;100.00;99745.96;105437;1259;60557;-46
2023/06/15 07:08:22;;;;;;;2.70;0.60;;;;;;;22.43;100.00;99749.85;109018;1254;59916;-46
2023/06/15 07:10:50;;;;;;;0.50;0.40;;;;;;;22.48;100.00;99746.21;109131;1254;73888;-47
2023/06/15 07:13:17;;;;;;;3.40;0.50;;;;;;;22.53;100.00;99750.25;109090;1254;66591;-47
2023/06/15 07:15:44;;;;;;;0.70;0.50;;;;;;;22.58;100.00;99746.30;109054;1253;72728;-49
2023/06/15 07:18:14;;;;;;;1.10;0.50;;;;;;;22.61;100.00;99745.42;109066;1254;60308;-49
2023/06/15 07:20:42;;;;;;;1.40;0.60;;;;;;;22.67;100.00;99748.34;109103;1254;58808;-50
2023/06/15 07:23:09;;;;;;;1.60;0.60;;;;;;;22.75;100.00;99746.65;109046;1251;73735;-50
2023/06/15 07:25:36;;;;;;;2.80;0.70;;;;;;;22.81;100.00;99748.27;109017;1251;66790;-48
2023/06/15 07:28:04;;;;;;;6.60;0.60;;;;;;;22.84;100.00;99747.23;109128;1254;72344;-46
2023/06/15 07:30:31;;;;;;;3.20;0.80;;;;;;;22.87;100.00;99749.73;109056;1252;60074;-46
2023/06/15 07:32:58;;;;;;;4.00;0.50;;;;;;;22.91;100.00;99745.66;109084;1253;59019;-47
2023/06/15 07:35:25;;;;;;;2.50;1.10;;;;;;;22.98;100.00;99739.60;109084;1259;73270;-48
2023/06/15 07:37:53;;;;;;;3.00;0.70;;;;;;;23.06;100.00;99737.52;109011;1254;66876;-49
2023/06/15 07:40:20;;;;;;;3.70;0.70;;;;;;;23.12;100.00;99740.02;109089;1259;72688;-48
2023/06/15 07:42:47;;;;;;;2.00;0.90;;;;;;;23.17;100.00;99733.45;108907;1254;59702;-47
2023/06/15 07:45:15;;;;;;;3.30;0.70;;;;;;;23.19;100.00;99738.77;108952;1254;58801;-50
2023/06/15 07:47:42;;;;;;;6.80;1.20;;;;;;;23.19;100.00;99734.16;108996;1255;73858;-47
2023/06/15 07:50:09;;;;;;;1.30;0.60;;;;;;;23.21;100.00;99733.85;109060;1254;66797;-47
2023/06/15 07:52:37;;;;;;;2.20;0.60;;;;;;;23.22;100.00;99732.23;108948;1254;71671;-48
2023/06/15 07:55:05;;;;;;;7.40;0.70;;;;;;;23.26;100.00;99729.09;109054;1260;58776;-49
2023/06/15 07:57:34;;;;;;;6.30;0.70;;;;;;;23.31;100.00;99725.06;109078;1254;59207;-47
2023/06/15 08:00:04;;;;;;;3.90;0.70;;;;;;;23.39;100.00;99722.29;106947;1254;72665;-50
2023/06/15 08:02:31;;;;;;;3.00;0.60;;;;;;;23.47;100.00;99723.30;105555;1260;69707;-49
2023/06/15 08:05:00;;;;;;;3.70;0.70;;;;;;;23.53;100.00;99719.43;106092;1258;72642;-46
2023/06/15 08:07:28;;;;;;;1.90;0.70;;;;;;;23.56;100.00;99717.30;105362;1269;60517;-45
2023/06/15 08:09:56;;;;;;;1.30;0.60;;;;;;;23.60;100.00;99719.40;105422;1253;60549;-45
2023/06/15 08:12:23;;;;;;;2.40;0.60;;;;;;;23.67;100.00;99716.71;105339;1257;73073;-47
2023/06/15 08:14:50;;;;;;;3.40;0.50;;;;;;;23.75;100.00;99714.76;105334;1254;67001;-47
2023/06/15 08:17:17;;;;;;;5.30;0.60;;;;;;;23.82;100.00;99720.56;105374;1260;72698;-47
2023/06/15 08:19:45;;;;;;;1.30;0.60;;;;;;;23.87;100.00;99716.95;104953;1254;60472;-48
2023/06/15 08:22:13;;;;;;;3.40;0.80;;;;;;;23.86;100.00;99715.40;104877;1256;60446;-47
2023/06/15 08:24:40;;;;;;;3.10;0.60;;;;;;;23.83;100.00;99709.90;105113;1254;72577;-51
2023/06/15 08:27:08;;;;;;;2.70;0.60;;;;;;;23.86;100.00;99708.29;107959;1256;68122;-54
2023/06/15 08:29:35;;;;;;;0.60;0.50;;;;;;;23.93;100.00;99705.84;105361;1260;72448;-48
2023/06/15 08:32:08;;;;;;;4.80;0.60;;;;;;;24.04;100.00;99706.88;105085;1255;60675;-51
2023/06/15 08:34:36;;;;;;;0.90;0.60;;;;;;;24.17;100.00;99707.00;105727;1260;60373;-50
2023/06/15 08:37:04;;;;;;;4.20;0.50;;;;;;;24.22;100.00;99702.50;105389;1254;72511;-52
2023/06/15 08:39:31;;;;;;;1.80;0.50;;;;;;;24.25;100.00;99702.48;105296;1257;66233;-49
2023/06/15 08:42:01;;;;;;;1.40;0.60;;;;;;;24.32;100.00;99699.95;105328;1257;71442;-49
2023/06/15 08:44:30;;;;;;;1.60;0.60;;;;;;;24.43;100.00;99703.93;105525;1257;60963;-48
2023/06/15 08:47:00;;;;;;;1.30;0.50;;;;;;;24.50;100.00;99704.98;106874;1254;60485;-48
2023/06/15 08:49:28;;;;;;;1.60;1.00;;;;;;;24.49;100.00;99705.96;105325;1258;74308;-47
2023/06/15 08:51:56;;;;;;;1.40;0.60;;;;;;;24.45;100.00;99702.50;105098;1260;66613;-52
2023/06/15 08:54:27;;;;;;;3.60;0.50;;;;;;;24.40;100.00;99702.35;105570;1254;71758;-50
2023/06/15 08:56:55;;;;;;;1.90;1.00;;;;;;;24.37;100.00;99705.27;105314;1257;60436;-49
2023/06/15 08:59:23;;;;;;;3.10;1.10;;;;;;;24.33;100.00;99702.36;105060;1260;60520;-49
2023/06/15 09:01:52;;;;;;;2.30;0.50;;;;;;;24.31;100.00;99701.91;104647;1254;73922;-53
2023/06/15 09:04:19;;;;;;;7.40;0.60;;;;;;;24.29;100.00;99700.97;105151;1260;66771;-48
2023/06/15 09:06:48;;;;;;;2.30;0.60;;;;;;;24.29;100.00;99703.75;105492;1254;72680;-53
2023/06/15 09:09:16;;;;;;;1.80;0.60;;;;;;;24.27;100.00;99704.14;105759;1254;60565;-49
2023/06/15 09:11:46;;;;;;;2.00;0.70;;;;;;;24.21;100.00;99703.48;105535;1254;60421;-50
2023/06/15 09:14:14;;;;;;;4.40;0.60;;;;;;;24.10;100.00;99703.00;105428;1256;73254;-49
2023/06/15 09:16:41;;;;;;;1.10;0.60;;;;;;;24.02;100.00;99702.47;105429;1253;66996;-48
2023/06/15 09:19:16;;;;;;;0.80;0.60;;;;;;;23.96;100.00;99699.55;105446;1261;72784;-51
2023/06/15 09:21:51;;;;;;;0.60;0.50;;;;;;;23.92;100.00;99696.81;105515;1255;61717;-50
2023/06/15 09:24:22;;;;;;;1.40;0.60;;;;;;;23.90;100.00;99697.02;105926;1255;60434;-48
2023/06/15 09:26:49;;;;;;;1.60;0.70;;;;;;;23.89;100.00;99698.25;107325;1254;73902;-49
2023/06/15 09:29:17;;;;;;;4.90;0.80;;;;;;;23.88;100.00;99698.03;105403;1255;70336;-48
2023/06/15 09:31:44;;;;;;;1.10;0.60;;;;;;;23.85;100.00;99697.52;105489;1254;72772;-51
2023/06/15 09:34:12;;;;;;;0.80;0.70;;;;;;;23.86;100.00;99695.67;105458;1257;60509;-48
2023/06/15 09:36:48;;;;;;;2.00;0.60;;;;;;;23.85;100.00;99698.30;105827;1254;60697;-50
2023/06/15 09:39:25;;;;;;;4.20;0.60;;;;;;;23.79;100.00;99694.39;106477;1254;72558;-51
2023/06/15 09:42:00;;;;;;;1.60;0.70;;;;;;;23.74;100.00;99694.68;105370;1254;67829;-50
2023/06/15 09:44:27;;;;;;;7.60;1.10;;;;;;;23.69;100.00;99692.25;105331;1255;72671;-48
2023/06/15 09:46:59;;;;;;;2.40;0.60;;;;;;;23.64;100.00;99692.07;105283;1257;60621;-53
2023/06/15 09:49:31;;;;;;;1.90;0.60;;;;;;;23.59;100.00;99694.59;105348;1260;60530;-49
2023/06/15 09:52:00;;;;;;;1.90;0.70;;;;;;;23.54;100.00;99694.01;105702;1254;74184;-53
2023/06/15 09:54:28;;;;;;;11.70;1.00;;;;;;;23.51;100.00;99690.91;105331;1260;66887;-49
2023/06/15 09:56:57;;;;;;;2.30;1.20;;;;;;;23.48;100.00;99693.11;107513;1254;72643;-49
2023/06/15 09:59:25;;;;;;;4.90;1.00;;;;;;;23.49;100.00;99690.91;105616;1257;60521;-53
2023/06/15 10:01:54;;;;;;;2.90;0.80;;;;;;;23.52;100.00;99688.38;105620;1255;60341;-50
2023/06/15 10:04:30;;;;;;;6.20;0.90;;;;;;;23.58;100.00;99691.53;105166;1254;73841;-50
2023/06/15 10:07:01;;;;;;;2.70;0.60;;;;;;;23.65;100.00;99692.65;105060;1255;65611;-47
2023/06/15 10:09:31;;;;;;;4.20;0.70;;;;;;;23.71;100.00;99695.15;109185;1254;72617;-48
2023/06/15 10:12:15;;;;;;;3.90;0.60;;;;;;;23.76;100.00;99692.81;109009;1260;60097;-48
2023/06/15 10:14:55;;;;;;;1.00;0.70;;;;;;;23.79;100.00;99697.31;109190;1253;58638;-50
2023/06/15 10:17:24;;;;;;;2.00;0.70;;;;;;;23.79;100.00;99694.77;109000;1253;73863;-47
2023/06/15 10:19:51;;;;;;;1.80;0.60;;;;;;;23.79;100.00;99691.58;108933;1253;67771;-48
2023/06/15 10:22:19;;;;;;;3.20;0.70;;;;;;;23.82;100.00;99692.05;109115;1258;72649;-49
2023/06/15 10:24:46;;;;;;;3.90;0.70;;;;;;;23.86;100.00;99684.59;105432;1260;60428;-46
2023/06/15 10:27:14;;;;;;;3.60;0.80;;;;;;;23.92;100.00;99686.02;109118;1253;59940;-49
2023/06/15 10:29:54;;;;;;;2.80;0.80;;;;;;;23.94;100.00;99684.45;109078;1254;73776;-50
2023/06/15 10:32:26;;;;;;;3.40;0.90;;;;;;;23.95;100.00;99681.46;109129;1257;65857;-49
2023/06/15 10:35:23;;;;;;;4.60;0.70;;;;;;;23.95;100.00;99683.14;109068;1254;72694;-49
2023/06/15 10:38:23;;;;;;;4.50;0.90;;;;;;;23.97;100.00;99682.52;109129;1254;59964;-50
2023/06/15 10:40:51;;;;;;;2.40;0.70;;;;;;;23.99;100.00;99675.54;109112;1254;60009;-49
2023/06/15 10:43:19;;;;;;;5.10;1.30;;;;;;;24.02;100.00;99668.78;109001;1253;73855;-50
2023/06/15 10:45:47;;;;;;;2.40;0.70;;;;;;;24.06;100.00;99667.95;109230;1254;65061;-51
2023/06/15 10:48:23;;;;;;;3.10;0.70;;;;;;;24.11;100.00;99669.47;109047;1257;71202;-49
2023/06/15 10:50:51;;;;;;;2.20;0.70;;;;;;;24.13;100.00;99670.00;109095;1254;60124;-53
2023/06/15 10:53:26;;;;;;;3.50;0.70;;;;;;;24.15;100.00;99671.33;108990;1253;60276;-51
2023/06/15 10:55:57;;;;;;;4.40;0.70;;;;;;;24.16;100.00;99672.10;105527;1257;72402;-50
2023/06/15 10:58:26;;;;;;;2.80;1.10;;;;;;;24.17;100.00;99673.67;105372;1254;67444;-47
2023/06/15 11:01:08;;;;;;;1.70;0.70;;;;;;;24.17;100.00;99675.30;105349;1255;70851;-49
2023/06/15 11:03:39;;;;;;;2.10;0.60;;;;;;;24.13;100.00;99674.75;106006;1257;60585;-48
2023/06/15 11:06:23;;;;;;;1.20;0.60;;;;;;;24.12;100.00;99673.43;105565;1256;60497;-48
2023/06/15 11:08:52;;;;;;;4.80;1.20;;;;;;;24.13;100.00;99678.73;105420;1260;73927;-53
2023/06/15 11:11:26;;;;;;;3.90;0.70;;;;;;;24.16;100.00;99676.17;107177;1254;66320;-50
2023/06/15 11:13:55;;;;;;;1.20;0.60;;;;;;;24.18;100.00;99674.65;105309;1254;72645;-50
2023/06/15 11:16:27;;;;;;;1.50;0.80;;;;;;;24.20;100.00;99671.90;105797;1254;60452;-49
2023/06/15 11:18:59;;;;;;;2.80;0.80;;;;;;;24.23;100.00;99673.05;105505;1254;60851;-49
2023/06/15 11:21:30;;;;;;;1.90;0.70;;;;;;;24.26;100.00;99673.13;105703;1257;74508;-51
2023/06/15 11:23:59;;;;;;;2.60;0.80;;;;;;;24.26;100.00;99670.30;105442;1254;66833;-48
2023/06/15 11:26:28;;;;;;;4.70;0.70;;;;;;;24.29;100.00;99670.37;105348;1261;71850;-50